createdAt,value
2023-03-27T00:01:00.841Z,99.17
2023-03-27T00:03:32.385Z,100.00
2023-03-27T00:06:01.562Z,97.95
2023-03-27T00:08:29.491Z,98.94
2023-03-27T00:10:57.347Z,100.00
2023-03-27T00:13:25.610Z,100.00
2023-03-27T00:15:54.978Z,99.66
2023-03-27T00:18:25.108Z,98.70
2023-03-27T00:20:54.738Z,98.21
2023-03-27T00:23:22.397Z,98.01
2023-03-27T00:25:50.604Z,98.51
2023-03-27T00:28:18.681Z,98.42
2023-03-27T00:30:46.463Z,97.75
2023-03-27T00:33:14.672Z,98.55
2023-03-27T00:35:46.859Z,98.32
2023-03-27T00:38:16.935Z,97.26
2023-03-27T00:40:45.115Z,96.20
2023-03-27T00:43:20.727Z,94.94
2023-03-27T00:45:49.085Z,92.01
2023-03-27T00:48:17.084Z,90.74
2023-03-27T00:50:46.678Z,90.41
2023-03-27T00:53:21.878Z,87.93
2023-03-27T00:55:52.552Z,87.40
2023-03-27T00:58:23.689Z,87.01
2023-03-27T01:00:55.155Z,87.12
2023-03-27T01:03:25.463Z,84.74
2023-03-27T01:05:55.484Z,84.81
2023-03-27T01:08:24.880Z,84.69
2023-03-27T01:11:01.480Z,84.77
2023-03-27T01:13:47.234Z,84.71
2023-03-27T01:16:22.572Z,84.34
2023-03-27T01:19:01.211Z,85.37
2023-03-27T01:21:56.506Z,83.88
2023-03-27T01:24:52.904Z,82.05
2023-03-27T01:27:30.483Z,82.23
2023-03-27T01:30:08.925Z,80.67
2023-03-27T01:33:25.193Z,79.54
2023-03-27T01:36:23.070Z,78.67
2023-03-27T01:39:22.970Z,77.73
2023-03-27T01:41:58.807Z,77.40
2023-03-27T01:44:43.373Z,78.93
2023-03-27T01:47:22.525Z,78.50
2023-03-27T01:49:55.556Z,77.50
2023-03-27T01:52:28.163Z,78.11
2023-03-27T01:55:03.419Z,77.38
2023-03-27T01:57:48.808Z,78.21
2023-03-27T02:00:22.203Z,77.01
2023-03-27T02:02:55.018Z,76.68
2023-03-27T02:05:28.844Z,74.40
2023-03-27T02:08:00.422Z,74.13
2023-03-27T02:10:32.750Z,75.28
2023-03-27T02:13:08.169Z,74.80
2023-03-27T02:15:41.741Z,74.97
2023-03-27T02:18:12.330Z,74.63
2023-03-27T02:20:42.038Z,73.76
2023-03-27T02:23:09.938Z,74.02
2023-03-27T02:25:39.824Z,74.50
2023-03-27T02:28:23.681Z,72.39
2023-03-27T02:31:06.613Z,74.12
2023-03-27T02:34:08.583Z,74.40
2023-03-27T02:36:45.434Z,73.23
2023-03-27T02:39:20.696Z,74.19
2023-03-27T02:41:54.966Z,73.59
2023-03-27T02:44:31.090Z,72.61
2023-03-27T02:47:05.122Z,73.07
2023-03-27T02:49:37.425Z,71.51
2023-03-27T02:52:11.178Z,72.49
2023-03-27T02:54:43.256Z,73.07
2023-03-27T02:57:16.523Z,71.39
2023-03-27T02:59:50.507Z,72.37
2023-03-27T03:02:24.731Z,73.13
2023-03-27T03:04:59.082Z,73.20
2023-03-27T03:07:27.174Z,73.25
2023-03-27T03:09:56.068Z,72.29
2023-03-27T03:12:24.013Z,72.25
2023-03-27T03:14:53.247Z,73.59
2023-03-27T03:17:21.493Z,73.55
2023-03-27T03:19:49.710Z,73.63
2023-03-27T03:22:17.363Z,73.58
2023-03-27T03:24:44.955Z,73.37
2023-03-27T03:27:14.217Z,73.59
2023-03-27T03:29:43.704Z,74.36
2023-03-27T03:32:12.667Z,72.99
2023-03-27T03:34:44.064Z,73.94
2023-03-27T03:37:11.610Z,73.79
2023-03-27T03:39:39.340Z,72.46
2023-03-27T03:42:07.042Z,73.00
2023-03-27T03:44:34.925Z,72.99
2023-03-27T03:47:02.590Z,74.14
2023-03-27T03:49:31.974Z,75.00
2023-03-27T03:52:03.684Z,73.91
2023-03-27T03:54:32.800Z,72.91
2023-03-27T03:57:00.582Z,73.01
2023-03-27T03:59:28.505Z,72.83
2023-03-27T04:01:56.081Z,73.47
2023-03-27T04:04:23.712Z,72.13
2023-03-27T04:06:52.962Z,72.24
2023-03-27T04:09:20.852Z,73.21
2023-03-27T04:11:48.352Z,72.22
2023-03-27T04:14:16.317Z,72.61
2023-03-27T04:16:44.089Z,72.27
2023-03-27T04:19:11.695Z,71.60
2023-03-27T04:21:39.328Z,71.39
2023-03-27T04:24:09.134Z,72.27
2023-03-27T04:26:36.752Z,71.70
2023-03-27T04:29:10.186Z,71.84
2023-03-27T04:31:39.127Z,71.42
2023-03-27T04:34:08.339Z,70.96
2023-03-27T04:36:35.987Z,71.64
2023-03-27T04:39:03.898Z,71.62
2023-03-27T04:41:32.876Z,72.15
2023-03-27T04:44:04.758Z,71.85
2023-03-27T04:46:33.925Z,72.33
2023-03-27T04:49:01.541Z,72.94
2023-03-27T04:51:30.724Z,72.70
2023-03-27T04:53:58.350Z,71.97
2023-03-27T04:56:26.010Z,72.61
2023-03-27T04:58:55.346Z,72.12
2023-03-27T05:01:25.199Z,72.29
2023-03-27T05:03:53.597Z,72.04
2023-03-27T05:06:21.278Z,72.88
2023-03-27T05:08:49.250Z,72.56
2023-03-27T05:11:16.896Z,73.35
2023-03-27T05:13:44.521Z,71.33
2023-03-27T05:16:13.584Z,70.99
2023-03-27T05:18:42.105Z,71.28
2023-03-27T05:21:10.702Z,72.33
2023-03-27T05:23:38.816Z,71.20
2023-03-27T05:26:06.490Z,70.55
2023-03-27T05:28:41.261Z,70.08
2023-03-27T05:31:10.607Z,69.12
2023-03-27T05:33:39.857Z,68.69
2023-03-27T05:36:08.243Z,69.03
2023-03-27T05:38:35.931Z,67.77
2023-03-27T05:41:04.209Z,65.71
2023-03-27T05:43:32.081Z,64.45
2023-03-27T05:45:59.790Z,63.03
2023-03-27T05:48:27.933Z,63.68
2023-03-27T05:51:05.901Z,63.65
2023-03-27T05:53:33.571Z,62.76
2023-03-27T05:56:02.765Z,59.62
2023-03-27T05:58:31.561Z,58.65
2023-03-27T06:00:59.394Z,56.42
2023-03-27T06:03:30.323Z,58.50
2023-03-27T06:06:01.011Z,58.47
2023-03-27T06:08:29.490Z,57.82
2023-03-27T06:10:57.309Z,56.78
2023-03-27T06:13:25.152Z,53.93
2023-03-27T06:15:56.417Z,51.58
2023-03-27T06:18:29.045Z,50.58
2023-03-27T06:21:01.710Z,47.83
2023-03-27T06:23:29.871Z,46.88
2023-03-27T06:25:58.606Z,45.54
2023-03-27T06:28:26.791Z,44.42
2023-03-27T06:30:54.482Z,43.77
2023-03-27T06:33:22.492Z,43.54
2023-03-27T06:35:53.425Z,42.09
2023-03-27T06:38:23.499Z,42.17
2023-03-27T06:40:51.622Z,42.10
2023-03-27T06:43:22.313Z,43.38
2023-03-27T06:45:51.294Z,41.49
2023-03-27T06:48:22.653Z,42.60
2023-03-27T06:50:52.442Z,43.29
2023-03-27T06:53:27.961Z,44.35
2023-03-27T06:55:57.107Z,44.60
2023-03-27T06:58:25.301Z,44.50
2023-03-27T07:00:54.174Z,43.89
2023-03-27T07:03:23.977Z,44.87
2023-03-27T07:05:51.685Z,46.90
2023-03-27T07:08:24.131Z,47.16
2023-03-27T07:13:26.105Z,48.03
2023-03-27T07:15:54.826Z,45.83
2023-03-27T07:18:23.051Z,45.40
2023-03-27T07:20:51.263Z,46.61
2023-03-27T07:23:18.847Z,45.85
2023-03-27T07:25:46.708Z,46.58
2023-03-27T07:28:18.142Z,47.28
2023-03-27T07:30:46.135Z,45.80
2023-03-27T07:33:14.366Z,45.51
2023-03-27T07:35:43.179Z,44.19
2023-03-27T07:38:10.854Z,42.81
2023-03-27T07:40:40.771Z,42.21
2023-03-27T07:43:09.086Z,43.26
2023-03-27T07:45:38.457Z,44.05
2023-03-27T07:48:07.107Z,41.18
2023-03-27T07:50:36.005Z,39.16
2023-03-27T07:53:03.955Z,40.28
2023-03-27T07:55:31.663Z,40.48
2023-03-27T07:58:03.307Z,42.61
2023-03-27T08:00:35.503Z,43.40
2023-03-27T08:03:11.077Z,42.35
2023-03-27T08:05:41.477Z,41.39
2023-03-27T08:08:10.944Z,40.59
2023-03-27T08:10:38.944Z,41.59
2023-03-27T08:13:06.708Z,42.48
2023-03-27T08:15:34.289Z,42.17
2023-03-27T08:18:02.470Z,43.69
2023-03-27T08:20:31.773Z,42.88
2023-03-27T08:23:00.672Z,46.68
2023-03-27T08:25:29.742Z,44.88
2023-03-27T08:27:57.474Z,42.75
2023-03-27T08:30:27.412Z,44.93
2023-03-27T08:32:55.668Z,42.05
2023-03-27T08:35:23.807Z,42.24
2023-03-27T08:37:53.908Z,43.01
2023-03-27T08:40:26.438Z,45.44
2023-03-27T08:42:57.762Z,43.95
2023-03-27T08:45:28.436Z,43.70
2023-03-27T08:48:02.064Z,42.22
2023-03-27T08:50:34.733Z,43.98
2023-03-27T08:53:09.046Z,45.75
2023-03-27T08:55:42.098Z,44.97
2023-03-27T08:58:18.427Z,43.63
2023-03-27T09:00:49.810Z,43.64
2023-03-27T09:03:23.002Z,43.69
2023-03-27T09:05:56.431Z,43.34
2023-03-27T09:08:36.952Z,44.70
2023-03-27T09:11:10.808Z,44.08
2023-03-27T09:13:43.684Z,45.75
2023-03-27T09:16:19.736Z,47.19
2023-03-27T09:18:55.174Z,48.47
2023-03-27T09:21:32.354Z,46.92
2023-03-27T09:24:07.260Z,46.37
2023-03-27T09:26:37.434Z,46.50
2023-03-27T09:29:19.875Z,47.31
2023-03-27T09:31:49.702Z,48.22
2023-03-27T09:34:23.542Z,48.81
2023-03-27T09:36:51.591Z,47.51
2023-03-27T09:39:27.418Z,47.01
2023-03-27T09:42:00.208Z,46.24
2023-03-27T09:44:37.993Z,47.33
2023-03-27T09:47:14.242Z,47.27
2023-03-27T09:49:46.622Z,47.14
2023-03-27T09:52:35.910Z,45.13
2023-03-27T09:55:24.155Z,46.94
2023-03-27T09:57:58.656Z,46.35
2023-03-27T10:00:31.759Z,45.18
2023-03-27T10:03:05.718Z,46.58
2023-03-27T10:05:33.813Z,46.58
2023-03-27T10:08:02.543Z,45.20
2023-03-27T10:10:37.783Z,45.95
2023-03-27T10:13:11.630Z,45.75
2023-03-27T10:15:41.213Z,47.40
2023-03-27T10:18:23.732Z,47.81
2023-03-27T10:20:52.112Z,46.67
2023-03-27T10:23:25.203Z,45.83
2023-03-27T10:25:59.571Z,46.03
2023-03-27T10:28:29.594Z,46.18
2023-03-27T10:31:02.057Z,44.62
2023-03-27T10:33:36.344Z,44.60
2023-03-27T10:36:05.476Z,44.50
2023-03-27T10:38:34.319Z,44.50
2023-03-27T10:41:05.158Z,44.72
2023-03-27T10:43:40.143Z,44.88
2023-03-27T10:46:13.918Z,44.23
2023-03-27T10:48:52.030Z,43.21
2023-03-27T10:51:45.879Z,42.15
2023-03-27T10:54:19.933Z,43.96
2023-03-27T10:56:58.106Z,43.20
2023-03-27T10:59:41.055Z,42.65
2023-03-27T11:02:18.644Z,43.95
2023-03-27T11:04:51.795Z,44.96
2023-03-27T11:07:27.890Z,44.81
2023-03-27T11:10:03.710Z,44.89
2023-03-27T11:12:37.904Z,42.43
2023-03-27T11:15:15.371Z,42.84
2023-03-27T11:17:48.913Z,45.71
2023-03-27T11:20:24.961Z,47.01
2023-03-27T11:23:00.913Z,47.80
2023-03-27T11:25:38.765Z,47.17
2023-03-27T11:28:21.012Z,46.70
2023-03-27T11:30:55.976Z,46.36
2023-03-27T11:33:38.290Z,45.88
2023-03-27T11:36:34.066Z,46.15
2023-03-27T11:39:15.252Z,47.28
2023-03-27T11:41:43.653Z,46.92
2023-03-27T11:44:12.678Z,46.65
2023-03-27T11:46:56.291Z,44.29
2023-03-27T11:49:37.470Z,43.46
2023-03-27T11:52:15.601Z,44.88
2023-03-27T11:54:58.507Z,45.96
2023-03-27T11:57:27.488Z,47.01
2023-03-27T12:00:28.017Z,50.01
2023-03-27T12:03:19.215Z,51.99
2023-03-27T12:05:58.966Z,50.84
2023-03-27T12:08:40.954Z,51.91
2023-03-27T12:11:11.981Z,52.31
2023-03-27T12:14:02.035Z,54.78
2023-03-27T12:16:48.902Z,55.28
2023-03-27T12:19:38.972Z,56.90
2023-03-27T12:22:24.312Z,57.31
2023-03-27T12:25:04.819Z,58.20
2023-03-27T12:27:49.795Z,59.08
2023-03-27T12:30:26.772Z,59.76
2023-03-27T12:33:12.741Z,57.79
2023-03-27T12:35:47.074Z,57.68
2023-03-27T12:38:23.665Z,56.14
2023-03-27T12:41:03.106Z,55.81
2023-03-27T12:43:33.820Z,54.93
2023-03-27T12:46:17.504Z,54.47
2023-03-27T12:48:52.789Z,54.39
2023-03-27T12:51:21.571Z,53.12
2023-03-27T12:53:51.805Z,52.96
2023-03-27T12:56:27.333Z,53.26
2023-03-27T12:58:56.736Z,52.55
2023-03-27T13:01:52.199Z,52.21
2023-03-27T13:04:44.628Z,50.12
2023-03-27T13:07:20.060Z,49.47
2023-03-27T13:09:59.553Z,46.21
2023-03-27T13:12:46.194Z,43.14
2023-03-27T13:15:31.555Z,41.84
2023-03-27T13:18:28.998Z,42.07
2023-03-27T13:21:08.621Z,41.73
2023-03-27T13:23:56.009Z,41.26
2023-03-27T13:26:37.530Z,44.44
2023-03-27T13:29:16.351Z,47.03
2023-03-27T13:31:58.498Z,46.87
2023-03-27T13:34:37.260Z,47.61
2023-03-27T13:37:48.319Z,49.80
2023-03-27T13:40:23.289Z,50.53
2023-03-27T13:42:54.187Z,50.84
2023-03-27T13:45:26.256Z,48.01
2023-03-27T13:48:30.237Z,49.54
2023-03-27T13:51:22.969Z,49.22
2023-03-27T13:54:04.052Z,48.18
2023-03-27T13:56:42.018Z,48.75
2023-03-27T13:59:36.720Z,49.30
2023-03-27T14:02:26.099Z,48.59
2023-03-27T14:05:10.897Z,52.63
2023-03-27T14:08:00.766Z,56.46
2023-03-27T14:10:43.878Z,58.73
2023-03-27T14:13:32.311Z,57.94
2023-03-27T14:16:22.364Z,58.16
2023-03-27T14:19:07.985Z,55.05
2023-03-27T14:21:52.255Z,53.19
2023-03-27T14:24:32.438Z,53.22
2023-03-27T14:27:02.632Z,51.70
2023-03-27T14:29:32.368Z,51.06
2023-03-27T14:32:04.333Z,51.56
2023-03-27T14:34:47.220Z,50.86
2023-03-27T14:37:37.534Z,49.42
2023-03-27T14:40:20.940Z,48.62
2023-03-27T14:42:51.141Z,47.80
2023-03-27T14:45:24.281Z,47.51
2023-03-27T14:47:55.609Z,46.96
2023-03-27T14:50:25.044Z,46.71
2023-03-27T14:53:02.892Z,47.92
2023-03-27T14:55:35.744Z,47.95
2023-03-27T14:58:11.490Z,47.35
2023-03-27T15:00:42.101Z,48.45
2023-03-27T15:03:16.074Z,49.39
2023-03-27T15:05:57.216Z,49.53
2023-03-27T15:08:28.599Z,49.93
2023-03-27T15:10:56.929Z,50.18
2023-03-27T15:13:27.494Z,57.24
2023-03-27T15:15:59.262Z,61.60
2023-03-27T15:18:33.233Z,68.46
2023-03-27T15:21:04.120Z,72.83
2023-03-27T15:23:38.940Z,73.45
2023-03-27T15:26:12.826Z,73.66
2023-03-27T15:28:49.865Z,75.39
2023-03-27T15:31:18.922Z,73.96
2023-03-27T15:33:53.456Z,70.97
2023-03-27T15:36:27.717Z,72.90
2023-03-27T15:38:56.637Z,72.64
2023-03-27T15:41:39.386Z,71.97
2023-03-27T15:44:12.932Z,71.32
2023-03-27T15:46:53.477Z,72.45
2023-03-27T15:49:24.521Z,72.79
2023-03-27T15:51:52.598Z,72.62
2023-03-27T15:54:27.108Z,72.12
2023-03-27T15:57:10.588Z,71.09
2023-03-27T15:59:52.047Z,70.01
2023-03-27T16:02:22.979Z,68.82
2023-03-27T16:04:54.911Z,68.25
2023-03-27T16:07:27.653Z,67.85
2023-03-27T16:09:58.305Z,67.34
2023-03-27T16:12:31.334Z,66.92
2023-03-27T16:15:04.318Z,62.77
2023-03-27T16:17:39.474Z,57.08
2023-03-27T16:20:40.200Z,53.76
2023-03-27T16:23:07.807Z,53.88
2023-03-27T16:25:35.401Z,52.96
2023-03-27T16:28:03.382Z,52.12
2023-03-27T16:30:35.276Z,52.94
2023-03-27T16:33:03.913Z,51.26
2023-03-27T16:35:32.370Z,51.78
2023-03-27T16:38:02.084Z,50.67
2023-03-27T16:40:29.602Z,51.06
2023-03-27T16:42:57.480Z,50.91
2023-03-27T16:45:25.424Z,51.66
2023-03-27T16:47:54.833Z,52.06
2023-03-27T16:50:25.610Z,52.26
2023-03-27T16:52:53.942Z,52.30
2023-03-27T16:55:21.666Z,52.45
2023-03-27T16:57:49.558Z,52.73
2023-03-27T17:00:20.041Z,52.59
2023-03-27T17:02:48.393Z,51.82
2023-03-27T17:05:18.891Z,50.89
2023-03-27T17:07:49.717Z,50.24
2023-03-27T17:10:17.693Z,50.81
2023-03-27T17:12:45.596Z,52.88
2023-03-27T17:15:15.012Z,53.41
2023-03-27T17:17:42.643Z,54.52
2023-03-27T17:20:12.067Z,54.79
2023-03-27T17:22:41.159Z,55.67
2023-03-27T17:25:09.945Z,56.13
2023-03-27T17:27:37.699Z,57.03
2023-03-27T17:30:06.695Z,56.55
2023-03-27T17:32:34.730Z,57.98
2023-03-27T17:35:04.516Z,58.44
2023-03-27T17:37:32.570Z,59.18
2023-03-27T17:40:01.650Z,59.56
2023-03-27T17:42:29.279Z,60.28
2023-03-27T17:44:57.006Z,61.21
2023-03-27T17:47:26.898Z,62.41
2023-03-27T17:49:54.671Z,62.18
2023-03-27T17:52:23.679Z,62.58
2023-03-27T17:54:51.375Z,61.95
2023-03-27T17:57:20.698Z,61.33
2023-03-27T17:59:48.335Z,61.80
2023-03-27T18:02:18.270Z,61.82
2023-03-27T18:04:48.032Z,62.14
2023-03-27T18:07:16.785Z,62.00
2023-03-27T18:09:44.459Z,62.11
2023-03-27T18:12:12.157Z,62.83
2023-03-27T18:14:41.500Z,62.95
2023-03-27T18:17:09.211Z,63.77
2023-03-27T18:19:37.288Z,64.07
2023-03-27T18:22:05.134Z,64.35
2023-03-27T18:24:32.904Z,64.82
2023-03-27T18:27:00.658Z,65.84
2023-03-27T18:29:30.984Z,66.04
2023-03-27T18:32:00.320Z,66.51
2023-03-27T18:34:28.126Z,66.71
2023-03-27T18:36:56.288Z,66.89
2023-03-27T18:39:24.092Z,67.34
2023-03-27T18:41:53.269Z,67.15
2023-03-27T18:44:21.480Z,67.28
2023-03-27T18:46:49.157Z,67.77
2023-03-27T18:49:24.675Z,68.40
2023-03-27T18:51:52.837Z,69.23
2023-03-27T18:54:21.457Z,69.96
2023-03-27T18:56:49.367Z,70.29
2023-03-27T18:59:17.480Z,70.50
2023-03-27T19:01:45.090Z,71.57
2023-03-27T19:04:14.503Z,71.74
2023-03-27T19:06:46.614Z,72.19
2023-03-27T19:09:14.731Z,71.50
2023-03-27T19:11:43.784Z,71.88
2023-03-27T19:14:12.215Z,72.87
2023-03-27T19:16:40.109Z,72.54
2023-03-27T19:19:07.833Z,73.23
2023-03-27T19:21:35.769Z,72.82
2023-03-27T19:24:05.288Z,73.53
2023-03-27T19:26:35.144Z,73.64
2023-03-27T19:29:02.815Z,73.89
2023-03-27T19:31:33.468Z,74.82
2023-03-27T19:34:02.028Z,74.72
2023-03-27T19:36:30.181Z,75.18
2023-03-27T19:38:58.532Z,75.66
2023-03-27T19:41:28.052Z,75.16
2023-03-27T19:43:56.159Z,75.44
2023-03-27T19:46:25.002Z,76.07
2023-03-27T19:48:53.027Z,76.39
2023-03-27T19:51:21.345Z,76.13
2023-03-27T19:53:49.045Z,76.13
2023-03-27T19:56:16.924Z,76.39
2023-03-27T19:58:46.019Z,77.13
2023-03-27T20:01:13.769Z,77.02
2023-03-27T20:03:41.869Z,77.21
2023-03-27T20:06:18.036Z,76.74
2023-03-27T20:08:46.602Z,76.53
2023-03-27T20:11:14.567Z,76.71
2023-03-27T20:13:55.628Z,76.22
2023-03-27T20:16:27.923Z,76.11
2023-03-27T20:19:04.330Z,75.79
2023-03-27T20:21:34.345Z,76.09
2023-03-27T20:24:02.323Z,75.91
2023-03-27T20:26:32.445Z,75.80
2023-03-27T20:29:00.398Z,75.65
2023-03-27T20:31:29.557Z,75.42
2023-03-27T20:33:57.611Z,76.38
2023-03-27T20:36:25.344Z,76.46
2023-03-27T20:38:53.527Z,76.46
2023-03-27T20:41:21.775Z,76.16
2023-03-27T20:43:50.944Z,75.80
2023-03-27T20:46:18.776Z,76.84
2023-03-27T20:48:54.140Z,77.48
2023-03-27T20:51:25.138Z,77.90
2023-03-27T20:53:56.129Z,78.42
2023-03-27T20:56:29.195Z,78.84
2023-03-27T20:58:57.314Z,78.84
2023-03-27T21:01:27.483Z,78.57
2023-03-27T21:03:58.460Z,78.86
2023-03-27T21:06:26.547Z,79.63
2023-03-27T21:08:54.660Z,80.39
2023-03-27T21:11:22.820Z,80.59
2023-03-27T21:13:51.291Z,80.81
2023-03-27T21:16:19.486Z,80.48
2023-03-27T21:18:47.401Z,80.53
2023-03-27T21:21:16.649Z,80.84
2023-03-27T21:23:44.673Z,80.34
2023-03-27T21:26:14.599Z,80.59
2023-03-27T21:28:42.451Z,80.80
2023-03-27T21:31:11.470Z,81.16
2023-03-27T21:33:40.117Z,81.08
2023-03-27T21:36:10.003Z,81.30
2023-03-27T21:38:38.997Z,81.27
2023-03-27T21:41:07.853Z,81.19
2023-03-27T21:43:35.523Z,81.72
2023-03-27T21:46:04.694Z,80.38
2023-03-27T21:48:32.297Z,80.21
2023-03-27T21:51:01.119Z,80.66
2023-03-27T21:53:28.863Z,81.27
2023-03-27T21:55:58.522Z,80.75
2023-03-27T21:58:27.011Z,80.62
2023-03-27T22:00:57.200Z,80.94
2023-03-27T22:03:25.032Z,81.08
2023-03-27T22:06:07.996Z,82.45
2023-03-27T22:08:39.277Z,82.48
2023-03-27T22:11:08.363Z,82.13
2023-03-27T22:13:36.897Z,80.88
2023-03-27T22:16:11.890Z,81.06
2023-03-27T22:18:39.736Z,81.18
2023-03-27T22:21:16.417Z,81.73
2023-03-27T22:23:46.284Z,81.95
2023-03-27T22:26:15.283Z,81.56
2023-03-27T22:28:43.089Z,81.44
2023-03-27T22:31:11.490Z,81.99
2023-03-27T22:33:39.717Z,81.94
2023-03-27T22:36:11.025Z,82.15
2023-03-27T22:38:39.386Z,82.43
2023-03-27T22:41:09.372Z,82.29
2023-03-27T22:43:38.632Z,81.35
2023-03-27T22:46:07.067Z,82.17
2023-03-27T22:48:35.332Z,82.33
2023-03-27T22:51:03.630Z,81.31
2023-03-27T22:53:32.580Z,81.19
2023-03-27T22:56:01.165Z,81.69
2023-03-27T22:58:31.674Z,81.20
2023-03-27T23:01:00.676Z,81.00
2023-03-27T23:03:28.756Z,80.23
2023-03-27T23:05:57.286Z,80.59
2023-03-27T23:08:28.208Z,80.09
2023-03-27T23:10:57.164Z,80.38
2023-03-27T23:13:25.407Z,79.95
2023-03-27T23:15:53.148Z,80.04
2023-03-27T23:18:24.499Z,79.56
2023-03-27T23:20:56.087Z,80.75
2023-03-27T23:23:23.798Z,80.20
2023-03-27T23:25:51.538Z,80.14
2023-03-27T23:28:19.290Z,81.23
2023-03-27T23:30:53.672Z,81.68
2023-03-27T23:33:24.764Z,81.21
2023-03-27T23:35:52.482Z,81.86
2023-03-27T23:38:20.169Z,81.59
2023-03-27T23:40:54.831Z,81.25
2023-03-27T23:43:22.426Z,79.97
2023-03-27T23:45:49.994Z,80.37
2023-03-27T23:48:17.761Z,79.99
2023-03-27T23:50:46.783Z,79.43
2023-03-27T23:53:14.534Z,79.34
2023-03-27T23:55:42.061Z,79.03
2023-03-27T23:58:09.657Z,78.66
